createdAt,value
2019-04-20T00:01:16.799Z,5.30
2019-04-20T00:03:42.332Z,5.40
2019-04-20T00:06:09.187Z,4.70
2019-04-20T00:08:38.222Z,5.50
2019-04-20T00:11:11.715Z,5.35
2019-04-20T00:13:43.833Z,5.30
2019-04-20T00:16:02.029Z,5.10
2019-04-20T00:18:34.701Z,5.83
2019-04-20T00:21:04.807Z,5.05
2019-04-20T00:23:33.450Z,5.80
2019-04-20T00:26:04.472Z,5.90
2019-04-20T00:28:40.830Z,5.50
2019-04-20T00:31:09.742Z,5.70
2019-04-20T00:33:30.917Z,4.83
2019-04-20T00:35:48.440Z,5.17
2019-04-20T00:38:16.035Z,5.50
2019-04-20T00:40:43.426Z,6.15
2019-04-20T00:43:14.121Z,5.20
2019-04-20T00:45:46.727Z,5.60
2019-04-20T00:48:19.985Z,5.20
2019-04-20T00:50:51.264Z,5.83
2019-04-20T00:53:14.869Z,5.12
2019-04-20T00:55:33.806Z,5.72
2019-04-20T00:58:11.747Z,5.83
2019-04-20T01:00:51.072Z,6.85
2019-04-20T01:03:16.803Z,4.78
2019-04-20T01:05:46.386Z,4.90
2019-04-20T01:07:59.905Z,4.78
2019-04-20T01:10:23.681Z,5.15
2019-04-20T01:12:52.068Z,6.37
2019-04-20T01:15:30.132Z,4.67
2019-04-20T01:17:47.648Z,5.15
2019-04-20T01:20:14.397Z,4.40
2019-04-20T01:22:50.077Z,5.50
2019-04-20T01:25:17.252Z,5.15
2019-04-20T01:27:50.111Z,4.90
2019-04-20T01:30:16.080Z,5.90
2019-04-20T01:32:51.473Z,5.10
2019-04-20T01:35:14.702Z,4.87
2019-04-20T01:37:46.989Z,4.65
2019-04-20T01:40:03.974Z,5.42
2019-04-20T01:42:30.116Z,5.15
2019-04-20T01:44:58.594Z,5.20
2019-04-20T01:47:35.760Z,4.67
2019-04-20T01:50:01.767Z,4.28
2019-04-20T01:52:28.773Z,4.35
2019-04-20T01:55:11.487Z,4.90
2019-04-20T01:57:27.201Z,4.45
2019-04-20T01:59:57.242Z,4.62
2019-04-20T02:02:20.962Z,4.92
2019-04-20T02:04:50.261Z,3.90
2019-04-20T02:07:19.979Z,4.50
2019-04-20T02:09:49.930Z,4.53
2019-04-20T02:12:18.195Z,4.50
2019-04-20T02:14:46.276Z,5.10
2019-04-20T02:17:20.223Z,5.60
2019-04-20T02:19:57.344Z,6.12
2019-04-20T02:22:15.946Z,5.67
2019-04-20T02:24:34.208Z,6.65
2019-04-20T02:27:01.993Z,7.37
2019-04-20T02:29:50.685Z,5.47
2019-04-20T02:34:59.775Z,5.55
2019-04-20T02:40:06.586Z,5.55
2019-04-20T02:42:30.110Z,4.80
2019-04-20T02:45:07.076Z,5.08
2019-04-20T02:47:27.691Z,4.60
2019-04-20T02:49:51.839Z,5.03
2019-04-20T02:52:21.126Z,4.67
2019-04-20T02:54:47.185Z,5.10
2019-04-20T02:57:20.566Z,3.92
2019-04-20T03:00:01.166Z,3.92
2019-04-20T03:01:59.449Z,4.55
2019-04-20T03:04:20.328Z,4.90
2019-04-20T03:06:53.360Z,4.50
2019-04-20T03:09:25.694Z,4.70
2019-04-20T03:14:17.684Z,4.87
2019-04-20T03:16:51.816Z,4.92
2019-04-20T03:19:17.308Z,4.70
2019-04-20T03:21:54.204Z,4.15
2019-04-20T03:24:20.507Z,4.80
2019-04-20T03:26:40.334Z,4.30
2019-04-20T03:29:05.583Z,4.10
2019-04-20T03:32:10.291Z,4.17
2019-04-20T03:36:46.974Z,4.45
2019-04-20T03:39:03.628Z,5.20
2019-04-20T03:41:24.510Z,4.67
2019-04-20T03:43:43.538Z,4.83
2019-04-20T03:46:15.984Z,4.85
2019-04-20T03:48:54.831Z,4.12
2019-04-20T03:51:33.326Z,4.28
2019-04-20T03:53:55.237Z,6.03
2019-04-20T03:56:28.316Z,5.97
2019-04-20T03:58:50.461Z,5.37
2019-04-20T04:01:27.377Z,5.80
2019-04-20T04:03:53.335Z,4.35
2019-04-20T04:06:12.331Z,5.15
2019-04-20T04:08:37.328Z,4.50
2019-04-20T04:11:18.944Z,4.62
2019-04-20T04:13:26.946Z,3.90
2019-04-20T04:15:59.066Z,4.05
2019-04-20T04:18:31.142Z,4.15
2019-04-20T04:20:59.051Z,4.55
2019-04-20T04:23:38.191Z,4.95
2019-04-20T04:26:05.841Z,4.50
2019-04-20T04:28:35.288Z,4.67
2019-04-20T04:31:06.369Z,5.08
2019-04-20T04:35:56.473Z,4.70
2019-04-20T04:38:35.985Z,4.83
2019-04-20T04:41:12.440Z,4.95
2019-04-20T04:43:27.045Z,4.55
2019-04-20T04:45:36.850Z,4.65
2019-04-20T04:48:07.643Z,4.10
2019-04-20T04:50:37.358Z,4.50
2019-04-20T04:53:08.194Z,4.97
2019-04-20T04:55:37.052Z,4.45
2019-04-20T04:57:58.315Z,5.42
2019-04-20T05:00:28.189Z,5.33
2019-04-20T05:03:00.299Z,4.75
2019-04-20T05:05:47.278Z,4.58
2019-04-20T05:08:02.782Z,4.97
2019-04-20T05:10:20.722Z,4.25
2019-04-20T05:12:48.168Z,4.85
2019-04-20T05:15:31.065Z,4.28
2019-04-20T05:18:01.576Z,5.45
2019-04-20T05:20:30.732Z,4.67
2019-04-20T05:22:58.785Z,5.20
2019-04-20T05:25:26.615Z,4.83
2019-04-20T05:27:56.650Z,5.03
2019-04-20T05:30:05.741Z,5.60
2019-04-20T05:32:42.802Z,6.10
2019-04-20T05:35:24.050Z,4.50
2019-04-20T05:37:53.506Z,5.87
2019-04-20T05:40:23.745Z,4.95
2019-04-20T05:42:48.503Z,5.90
2019-04-20T05:45:16.309Z,6.37
2019-04-20T05:47:43.135Z,6.50
2019-04-20T05:50:09.783Z,5.47
2019-04-20T05:52:51.013Z,5.85
2019-04-20T05:55:14.706Z,5.78
2019-04-20T05:57:42.003Z,5.28
2019-04-20T06:00:15.903Z,6.30
2019-04-20T06:02:36.693Z,6.10
2019-04-20T06:05:11.328Z,5.90
2019-04-20T06:07:40.366Z,5.50
2019-04-20T06:10:05.974Z,5.65
2019-04-20T06:14:55.878Z,5.72
2019-04-20T06:17:47.730Z,6.37
2019-04-20T06:20:01.709Z,6.05
2019-04-20T06:22:31.438Z,5.75
2019-04-20T06:25:01.662Z,6.25
2019-04-20T06:27:21.540Z,7.60
2019-04-20T06:29:47.020Z,6.22
2019-04-20T06:32:29.564Z,6.90
2019-04-20T06:34:44.461Z,6.12
2019-04-20T06:37:10.157Z,5.72
2019-04-20T06:42:21.951Z,7.03
2019-04-20T06:45:04.469Z,6.60
2019-04-20T06:47:24.876Z,6.10
2019-04-20T06:49:38.417Z,6.15
2019-04-20T06:52:15.482Z,6.47
2019-04-20T06:54:33.866Z,6.58
2019-04-20T06:57:07.283Z,6.90
2019-04-20T06:59:42.191Z,6.30
2019-04-20T07:02:15.583Z,6.53
2019-04-20T07:04:57.589Z,6.72
2019-04-20T07:07:02.325Z,5.85
2019-04-20T07:09:43.482Z,6.53
2019-04-20T07:11:50.743Z,6.92
2019-04-20T07:14:11.109Z,5.45
2019-04-20T07:16:52.877Z,6.53
2019-04-20T07:19:18.782Z,6.12
2019-04-20T07:22:08.900Z,6.50
2019-04-20T07:24:28.708Z,6.10
2019-04-20T07:26:49.205Z,5.27
2019-04-20T07:29:20.927Z,6.33
2019-04-20T07:31:39.335Z,6.20
2019-04-20T07:34:11.594Z,5.87
2019-04-20T07:36:51.477Z,5.43
2019-04-20T07:39:18.652Z,5.40
2019-04-20T07:41:47.845Z,5.60
2019-04-20T07:44:11.795Z,5.33
2019-04-20T07:46:47.088Z,4.53
2019-04-20T07:49:01.347Z,4.83
2019-04-20T07:51:18.282Z,5.10
2019-04-20T07:53:59.583Z,8.10
2019-04-20T07:56:35.619Z,7.07
2019-04-20T07:58:47.467Z,4.90
2019-04-20T08:01:31.685Z,4.60
2019-04-20T08:03:55.808Z,5.30
2019-04-20T08:06:09.979Z,4.33
2019-04-20T08:08:45.237Z,3.70
2019-04-20T08:11:16.425Z,3.73
2019-04-20T08:14:07.136Z,4.10
2019-04-20T08:16:33.689Z,3.77
2019-04-20T08:18:45.828Z,3.90
2019-04-20T08:21:10.113Z,3.80
2019-04-20T08:23:42.555Z,4.37
2019-04-20T08:26:00.762Z,4.00
2019-04-20T08:28:28.715Z,4.50
2019-04-20T08:31:00.652Z,4.93
2019-04-20T08:33:36.718Z,5.00
2019-04-20T08:36:07.439Z,5.10
2019-04-20T08:40:58.366Z,5.70
2019-04-20T08:43:42.387Z,5.30
2019-04-20T08:46:03.100Z,4.37
2019-04-20T08:48:28.793Z,4.90
2019-04-20T08:51:01.877Z,4.30
2019-04-20T08:53:28.113Z,4.20
2019-04-20T08:55:44.966Z,3.20
2019-04-20T08:57:59.966Z,3.37
2019-04-20T09:00:33.279Z,3.27
2019-04-20T09:03:05.723Z,3.90
2019-04-20T09:05:34.898Z,2.80
2019-04-20T09:08:02.557Z,3.10
2019-04-20T09:10:43.872Z,3.60
2019-04-20T09:13:02.562Z,3.50
2019-04-20T09:15:19.023Z,3.10
2019-04-20T09:17:49.436Z,3.80
2019-04-20T09:20:26.963Z,3.60
2019-04-20T09:22:58.297Z,3.83
2019-04-20T09:25:57.726Z,3.33
2019-04-20T09:27:47.632Z,3.40
2019-04-20T09:30:25.754Z,3.75
2019-04-20T09:32:59.252Z,3.67
2019-04-20T09:35:24.857Z,3.87
2019-04-20T09:37:54.360Z,3.90
2019-04-20T09:40:21.186Z,3.90
2019-04-20T09:42:31.971Z,4.10
2019-04-20T09:45:01.443Z,3.80
2019-04-20T09:47:34.575Z,2.90
2019-04-20T09:50:08.872Z,3.57
2019-04-20T09:52:41.179Z,4.37
2019-04-20T09:55:07.839Z,4.40
2019-04-20T09:57:38.080Z,4.00
2019-04-20T10:00:10.254Z,3.50
2019-04-20T10:02:23.990Z,3.83
2019-04-20T10:04:47.394Z,4.90
2019-04-20T10:07:18.030Z,4.33
2019-04-20T10:09:45.047Z,4.13
2019-04-20T10:12:11.262Z,4.20
2019-04-20T10:14:38.494Z,4.60
2019-04-20T10:17:05.783Z,4.20
2019-04-20T10:19:35.733Z,4.83
2019-04-20T10:22:02.403Z,4.40
2019-04-20T10:24:30.531Z,4.77
2019-04-20T10:26:58.774Z,4.93
2019-04-20T10:29:25.903Z,4.50
2019-04-20T10:31:57.256Z,5.13
2019-04-20T10:34:24.028Z,4.53
2019-04-20T10:36:51.307Z,4.90
2019-04-20T10:39:18.571Z,5.67
2019-04-20T10:41:51.186Z,5.90
2019-04-20T10:44:14.672Z,5.37
2019-04-20T10:46:42.814Z,5.17
2019-04-20T10:49:11.273Z,5.40
2019-04-20T10:51:39.766Z,5.07
2019-04-20T10:54:06.930Z,4.70
2019-04-20T10:56:33.790Z,5.90
2019-04-20T10:59:01.436Z,4.93
2019-04-20T11:01:29.602Z,4.33
2019-04-20T11:03:56.631Z,4.57
2019-04-20T11:06:24.633Z,6.10
2019-04-20T11:08:52.800Z,4.57
2019-04-20T11:11:26.180Z,4.70
2019-04-20T11:13:48.311Z,5.00
2019-04-20T11:16:15.374Z,5.77
2019-04-20T11:18:45.287Z,5.17
2019-04-20T11:21:13.346Z,4.83
2019-04-20T11:23:42.477Z,5.47
2019-04-20T11:26:10.512Z,4.90
2019-04-20T11:28:37.836Z,4.17
2019-04-20T11:31:06.014Z,5.23
2019-04-20T11:33:34.129Z,5.17
2019-04-20T11:36:01.117Z,5.50
2019-04-20T11:38:28.197Z,4.50
2019-04-20T11:41:08.361Z,5.07
2019-04-20T11:43:23.966Z,4.80
2019-04-20T11:45:51.086Z,5.10
2019-04-20T11:48:19.085Z,5.80
2019-04-20T11:50:47.438Z,5.87
2019-04-20T11:53:15.312Z,5.80
2019-04-20T11:55:42.414Z,5.20
2019-04-20T11:58:10.072Z,4.97
2019-04-20T12:00:43.167Z,5.13
2019-04-20T12:03:13.840Z,5.03
2019-04-20T12:05:40.788Z,6.20
2019-04-20T12:08:02.995Z,4.83
2019-04-20T12:10:31.395Z,4.80
2019-04-20T12:12:59.516Z,5.57
2019-04-20T12:15:26.606Z,4.80
2019-04-20T12:17:53.753Z,5.43
2019-04-20T12:20:20.897Z,5.50
2019-04-20T12:22:48.389Z,5.40
2019-04-20T12:25:16.094Z,5.30
2019-04-20T12:27:48.654Z,5.00
2019-04-20T12:30:12.142Z,5.40
2019-04-20T12:32:43.969Z,4.43
2019-04-20T12:35:08.575Z,5.00
2019-04-20T12:37:36.827Z,4.43
2019-04-20T12:40:04.941Z,4.50
2019-04-20T12:42:32.926Z,4.53
2019-04-20T12:44:59.845Z,4.50
2019-04-20T12:47:27.674Z,4.90
2019-04-20T12:49:55.805Z,5.43
2019-04-20T12:52:22.763Z,6.10
2019-04-20T12:54:50.445Z,6.83
2019-04-20T12:57:18.601Z,5.70
2019-04-20T12:59:47.242Z,5.30
2019-04-20T13:02:13.880Z,5.30
2019-04-20T13:04:41.544Z,5.30
2019-04-20T13:07:08.364Z,4.67
2019-04-20T13:09:34.945Z,4.83
2019-04-20T13:12:05.490Z,5.00
2019-04-20T13:14:30.572Z,4.07
2019-04-20T13:16:58.567Z,4.50
2019-04-20T13:19:26.708Z,5.00
2019-04-20T13:21:54.792Z,4.67
2019-04-20T13:24:22.963Z,4.30
2019-04-20T13:26:50.994Z,3.97
2019-04-20T13:29:19.144Z,5.07
2019-04-20T13:31:48.730Z,5.40
2019-04-20T13:34:15.135Z,4.70
2019-04-20T13:36:42.209Z,4.60
2019-04-20T13:39:10.066Z,4.80
2019-04-20T13:41:38.062Z,4.90
2019-04-20T13:44:06.260Z,4.00
2019-04-20T13:46:33.552Z,4.50
2019-04-20T13:49:00.758Z,4.83
2019-04-20T13:51:28.682Z,5.10
2019-04-20T13:53:55.661Z,4.57
2019-04-20T13:56:23.527Z,4.57
2019-04-20T13:58:51.645Z,4.80
2019-04-20T14:01:18.836Z,4.43
2019-04-20T14:03:47.057Z,4.43
2019-04-20T14:06:14.374Z,4.80
2019-04-20T14:08:41.572Z,4.63
2019-04-20T14:11:09.365Z,4.63
2019-04-20T14:13:41.950Z,4.70
2019-04-20T14:16:05.107Z,4.23
2019-04-20T14:18:33.064Z,4.20
2019-04-20T14:21:00.471Z,5.00
2019-04-20T14:23:28.211Z,5.03
2019-04-20T14:25:55.163Z,4.07
2019-04-20T14:28:23.020Z,4.20
2019-04-20T14:30:50.094Z,4.60
2019-04-20T14:33:16.988Z,3.80
2019-04-20T14:35:45.051Z,4.97
2019-04-20T14:38:13.067Z,4.87
2019-04-20T14:40:40.084Z,4.63
2019-04-20T14:43:06.927Z,5.10
2019-04-20T14:45:34.385Z,4.17
2019-04-20T14:48:01.657Z,3.93
2019-04-20T14:50:29.700Z,4.50
2019-04-20T14:52:57.583Z,4.90
2019-04-20T14:55:25.810Z,4.60
2019-04-20T14:57:55.243Z,4.97
2019-04-20T15:00:23.613Z,4.20
2019-04-20T15:02:50.514Z,4.37
2019-04-20T15:05:17.371Z,4.60
2019-04-20T15:07:44.754Z,5.33
2019-04-20T15:10:12.823Z,4.30
2019-04-20T15:12:48.853Z,5.00
2019-04-20T15:15:08.507Z,4.60
2019-04-20T15:17:35.378Z,5.10
2019-04-20T15:20:03.403Z,4.40
2019-04-20T15:22:31.723Z,5.23
2019-04-20T15:24:59.842Z,4.27
2019-04-20T15:27:28.069Z,4.17
2019-04-20T15:29:56.097Z,4.40
2019-04-20T15:32:22.999Z,4.30
2019-04-20T15:34:50.869Z,4.30
2019-04-20T15:37:18.243Z,4.37
2019-04-20T15:39:45.306Z,3.90
2019-04-20T15:42:11.894Z,4.17
2019-04-20T15:44:39.683Z,4.70
2019-04-20T15:47:07.034Z,4.33
2019-04-20T15:49:35.762Z,5.00
2019-04-20T15:52:03.816Z,4.13
2019-04-20T15:54:31.650Z,4.40
2019-04-20T15:57:02.376Z,4.70
2019-04-20T15:59:28.452Z,4.70
2019-04-20T16:01:55.617Z,4.27
2019-04-20T16:04:30.246Z,3.97
2019-04-20T16:06:50.663Z,4.30
2019-04-20T16:09:17.923Z,4.73
2019-04-20T16:11:45.102Z,4.60
2019-04-20T16:14:13.423Z,4.63
2019-04-20T16:16:40.394Z,4.80
2019-04-20T16:19:12.781Z,3.97
2019-04-20T16:21:37.400Z,5.10
2019-04-20T16:24:04.596Z,4.80
2019-04-20T16:26:31.651Z,4.70
2019-04-20T16:28:59.741Z,5.23
2019-04-20T16:31:26.876Z,4.80
2019-04-20T16:33:56.780Z,4.85
2019-04-20T16:36:22.851Z,5.20
2019-04-20T16:38:51.121Z,5.00
2019-04-20T16:41:18.293Z,4.20
2019-04-20T16:43:46.727Z,5.23
2019-04-20T16:46:17.894Z,4.40
2019-04-20T16:48:42.498Z,5.33
2019-04-20T16:51:09.077Z,4.53
2019-04-20T16:53:38.336Z,4.53
2019-04-20T16:56:04.633Z,5.20
2019-04-20T16:58:31.635Z,4.80
2019-04-20T17:00:59.264Z,5.25
2019-04-20T17:03:39.026Z,5.30
2019-04-20T17:05:55.955Z,6.23
2019-04-20T17:08:23.023Z,5.50
2019-04-20T17:10:49.871Z,6.03
2019-04-20T17:13:28.472Z,5.60
2019-04-20T17:15:45.760Z,4.97
2019-04-20T17:18:13.618Z,6.10
2019-04-20T17:20:41.005Z,4.77
2019-04-20T17:23:10.317Z,5.17
2019-04-20T17:25:37.653Z,5.27
2019-04-20T17:28:04.789Z,5.58
2019-04-20T17:30:31.557Z,6.10
2019-04-20T17:32:59.791Z,6.60
2019-04-20T17:35:38.004Z,5.77
2019-04-20T17:37:56.453Z,4.70
2019-04-20T17:40:44.256Z,6.67
2019-04-20T17:43:02.619Z,6.30
2019-04-20T17:45:33.421Z,6.17
2019-04-20T17:48:04.678Z,6.37
2019-04-20T17:50:34.721Z,6.57
2019-04-20T17:52:59.588Z,6.60
2019-04-20T17:55:24.319Z,6.40
2019-04-20T17:57:43.585Z,6.57
2019-04-20T18:00:13.791Z,6.27
2019-04-20T18:03:01.987Z,7.27
2019-04-20T18:05:29.875Z,6.00
2019-04-20T18:07:58.928Z,6.63
2019-04-20T18:10:22.605Z,7.70
2019-04-20T18:12:42.301Z,6.60
2019-04-20T18:15:22.761Z,6.20
2019-04-20T18:17:49.642Z,6.40
2019-04-20T18:19:58.796Z,6.40
2019-04-20T18:22:25.910Z,7.17
2019-04-20T18:25:13.458Z,6.70
2019-04-20T18:27:45.949Z,7.27
2019-04-20T18:30:08.059Z,7.00
2019-04-20T18:32:18.071Z,6.55
2019-04-20T18:34:51.316Z,7.35
2019-04-20T18:37:16.917Z,7.95
2019-04-20T18:39:55.805Z,8.60
2019-04-20T18:42:18.441Z,8.28
2019-04-20T18:45:00.963Z,8.58
2019-04-20T18:47:30.244Z,9.60
2019-04-20T18:49:50.501Z,9.60
2019-04-20T18:52:07.515Z,9.18
2019-04-20T18:54:39.131Z,9.10
2019-04-20T18:57:03.606Z,10.03
2019-04-20T18:59:40.051Z,9.00
2019-04-20T19:01:59.504Z,10.08
2019-04-20T19:04:26.130Z,10.63
2019-04-20T19:06:53.961Z,9.40
2019-04-20T19:09:26.276Z,12.10
2019-04-20T19:11:55.817Z,10.68
2019-04-20T19:14:26.178Z,10.28
2019-04-20T19:16:58.095Z,10.23
2019-04-20T19:19:24.243Z,9.88
2019-04-20T19:21:43.748Z,9.90
2019-04-20T19:24:13.264Z,9.28
2019-04-20T19:26:44.946Z,10.90
2019-04-20T19:29:15.698Z,9.75
2019-04-20T19:31:51.254Z,11.65
2019-04-20T19:34:27.285Z,11.40
2019-04-20T19:36:40.220Z,12.00
2019-04-20T19:39:19.955Z,11.88
2019-04-20T19:41:40.698Z,12.37
2019-04-20T19:44:10.007Z,11.70
2019-04-20T19:46:50.653Z,11.12
2019-04-20T19:49:10.123Z,10.45
2019-04-20T19:51:49.254Z,10.72
2019-04-20T19:54:18.974Z,11.22
2019-04-20T19:56:38.759Z,12.00
2019-04-20T19:59:05.162Z,10.98
2019-04-20T20:01:18.226Z,11.15
2019-04-20T20:03:49.854Z,10.58
2019-04-20T20:06:23.774Z,10.43
2019-04-20T20:08:47.556Z,10.40
2019-04-20T20:11:18.507Z,12.03
2019-04-20T20:13:44.957Z,11.68
2019-04-20T20:16:14.495Z,11.63
2019-04-20T20:18:50.753Z,10.80
2019-04-20T20:21:21.900Z,11.55
2019-04-20T20:23:34.187Z,11.53
2019-04-20T20:26:05.089Z,11.35
2019-04-20T20:28:37.176Z,12.10
2019-04-20T20:31:09.713Z,12.78
2019-04-20T20:33:43.921Z,12.10
2019-04-20T20:36:03.681Z,11.83
2019-04-20T20:38:35.231Z,13.70
2019-04-20T20:41:05.788Z,11.33
2019-04-20T20:43:39.414Z,13.22
2019-04-20T20:46:09.093Z,13.43
2019-04-20T20:48:34.850Z,13.43
2019-04-20T20:51:05.139Z,12.65
2019-04-20T20:53:32.657Z,12.80
2019-04-20T20:55:48.549Z,12.98
2019-04-20T20:58:19.200Z,14.70
2019-04-20T21:00:54.051Z,13.20
2019-04-20T21:03:22.466Z,14.75
2019-04-20T21:05:39.950Z,14.63
2019-04-20T21:08:07.933Z,13.55
2019-04-20T21:10:40.210Z,14.10
2019-04-20T21:13:05.519Z,14.50
2019-04-20T21:15:33.241Z,14.95
2019-04-20T21:18:20.546Z,15.35
2019-04-20T21:20:49.124Z,15.72
2019-04-20T21:23:13.553Z,18.75
2019-04-20T21:25:34.562Z,19.27
2019-04-20T21:27:55.213Z,18.67
2019-04-20T21:30:30.818Z,19.30
2019-04-20T21:32:54.303Z,19.95
2019-04-20T21:35:19.939Z,19.85
2019-04-20T21:37:52.564Z,23.12
2019-04-20T21:40:25.145Z,21.37
2019-04-20T21:42:52.540Z,24.57
2019-04-20T21:45:23.049Z,26.45
2019-04-20T21:47:46.431Z,24.80
2019-04-20T21:50:30.001Z,26.10
2019-04-20T21:52:46.724Z,25.27
2019-04-20T21:55:12.129Z,27.48
2019-04-20T21:57:44.719Z,27.48
2019-04-20T22:00:17.913Z,26.57
2019-04-20T22:02:43.732Z,29.32
2019-04-20T22:05:07.329Z,28.10
2019-04-20T22:07:34.572Z,26.60
2019-04-20T22:10:02.404Z,29.18
2019-04-20T22:12:37.848Z,27.40
2019-04-20T22:15:03.609Z,27.75
2019-04-20T22:17:29.415Z,29.07
2019-04-20T22:20:10.516Z,26.75
2019-04-20T22:22:44.191Z,24.75
2019-04-20T22:25:07.665Z,26.02
2019-04-20T22:27:26.412Z,24.07
2019-04-20T22:29:50.203Z,24.85
2019-04-20T22:32:20.347Z,24.20
2019-04-20T22:34:55.999Z,23.62
2019-04-20T22:37:21.154Z,23.65
2019-04-20T22:39:47.691Z,22.70
2019-04-20T22:42:13.275Z,24.37
2019-04-20T22:44:41.135Z,22.48
2019-04-20T22:47:13.947Z,22.05
2019-04-20T22:49:54.032Z,23.30
2019-04-20T22:52:25.559Z,22.02
2019-04-20T22:54:48.982Z,21.82
2019-04-20T22:57:12.849Z,21.30
2019-04-20T22:59:41.852Z,23.18
2019-04-20T23:02:03.885Z,19.70
2019-04-20T23:04:30.895Z,20.75
2019-04-20T23:06:59.124Z,22.02
2019-04-20T23:09:26.790Z,21.65
2019-04-20T23:12:02.939Z,21.65
2019-04-20T23:14:22.468Z,22.35
2019-04-20T23:16:53.769Z,23.25
2019-04-20T23:19:29.051Z,22.17
2019-04-20T23:21:52.416Z,21.87
2019-04-20T23:24:15.322Z,22.52
2019-04-20T23:26:45.943Z,22.85
2019-04-20T23:29:13.362Z,21.20
2019-04-20T23:31:48.239Z,20.68
2019-04-20T23:34:15.245Z,21.62
2019-04-20T23:36:44.144Z,21.93
2019-04-20T23:39:08.631Z,19.75
2019-04-20T23:41:35.788Z,20.65
2019-04-20T23:44:07.095Z,20.62
2019-04-20T23:46:31.616Z,22.00
2019-04-20T23:48:59.623Z,22.37
2019-04-20T23:51:50.953Z,22.70
2019-04-20T23:54:04.676Z,21.80
2019-04-20T23:56:24.174Z,22.80
2019-04-20T23:58:56.094Z,22.73
